Time;durP1;ratioP1;P1;durP2;ratioP2;P2;SDS_P1;SDS_P2;PMS_P1;PMS_P2;Temp;Humidity;BMP_temperature;BMP_pressure;BME280_temperature;BME280_humidity;BME280_pressure;Samples;Min_cycle;Max_cycle;Signal;HPM_P1;HPM_P2
2023/03/29 00:01:48;;;;;;;;;;;;;;;;;;5113393;28;2085;-42
2023/03/29 00:04:18;;;;;;;;;;;;;;;;;;5113714;28;2247;-41
2023/03/29 00:06:46;;;;;;;;;;;;;;;;;;5113345;28;2119;-46
2023/03/29 00:09:14;;;;;;;;;;;;;;;;;;5113384;28;1854;-46
2023/03/29 00:11:41;;;;;;;;;;;;;;;;;;5113582;28;2096;-41
2023/03/29 00:14:08;;;;;;;;;;;;;;;;;;5113416;28;2009;-41
2023/03/29 00:16:36;;;;;;;;;;;;;;;;;;5113248;28;1896;-42
2023/03/29 00:19:03;;;;;;;;;;;;;;;;;;5113131;28;1847;-45
2023/03/29 00:21:30;;;;;;;;;;;;;;;;;;5113122;28;1962;-51
2023/03/29 00:23:57;;;;;;;;;;;;;;;;;;5112727;28;2047;-45
2023/03/29 00:26:25;;;;;;;;;;;;;;;;;;5113092;28;2013;-41
2023/03/29 00:28:52;;;;;;;;;;;;;;;;;;5113072;28;1971;-42
2023/03/29 00:31:20;;;;;;;;;;;;;;;;;;5094654;28;1919;-43
2023/03/29 00:33:47;;;;;;;;;;;;;;;;;;5112971;28;1853;-42
2023/03/29 00:36:14;;;;;;;;;;;;;;;;;;5112853;28;2081;-41
2023/03/29 00:38:42;;;;;;;;;;;;;;;;;;5095019;28;2151;-45
2023/03/29 00:41:09;;;;;;;;;;;;;;;;;;5113056;28;1761;-42
2023/03/29 00:43:50;;;;;;;;;;;;;;;;;;5112535;28;2058;-44
2023/03/29 00:46:17;;;;;;;;;;;;;;;;;;5112632;28;1836;-45
2023/03/29 00:48:45;;;;;;;;;;;;;;;;;;5112324;28;1961;-45
2023/03/29 00:51:14;;;;;;;;;;;;;;;;;;5094264;28;1884;-42
2023/03/29 00:53:43;;;;;;;;;;;;;;;;;;5112812;28;2118;-43
2023/03/29 00:56:18;;;;;;;;;;;;;;;;;;5099386;28;2025;-42
2023/03/29 00:58:56;;;;;;;;;;;;;;;;;;5094097;28;2189;-42
2023/03/29 01:01:29;;;;;;;;;;;;;;;;;;5094007;28;1537;-53
2023/03/29 01:04:01;;;;;;;;;;;;;;;;;;5112242;28;1973;-40
2023/03/29 01:06:30;;;;;;;;;;;;;;;;;;5094074;28;1754;-41
2023/03/29 01:09:00;;;;;;;;;;;;;;;;;;5112239;28;2057;-42
2023/03/29 01:11:58;;;;;;;;;;;;;;;;;;5093912;28;1888;-41
2023/03/29 01:14:33;;;;;;;;;;;;;;;;;;5081356;28;2007;-41
2023/03/29 01:17:01;;;;;;;;;;;;;;;;;;5093702;28;1808;-41
2023/03/29 01:19:31;;;;;;;;;;;;;;;;;;5093688;28;1898;-41
2023/03/29 01:22:21;;;;;;;;;;;;;;;;;;5111944;28;2087;-42
2023/03/29 01:25:06;;;;;;;;;;;;;;;;;;5093556;28;1883;-44
2023/03/29 01:27:52;;;;;;;;;;;;;;;;;;5093638;28;2018;-50
2023/03/29 01:30:45;;;;;;;;;;;;;;;;;;5111795;28;2037;-41
2023/03/29 01:33:22;;;;;;;;;;;;;;;;;;5088432;28;1850;-42
2023/03/29 01:36:00;;;;;;;;;;;;;;;;;;5093562;28;2161;-41
2023/03/29 01:38:47;;;;;;;;;;;;;;;;;;5111931;28;1907;-44
2023/03/29 01:41:15;;;;;;;;;;;;;;;;;;5111441;28;1793;-45
2023/03/29 01:43:51;;;;;;;;;;;;;;;;;;5111861;28;2090;-42
2023/03/29 01:46:32;;;;;;;;;;;;;;;;;;5111303;28;1946;-43
2023/03/29 01:49:10;;;;;;;;;;;;;;;;;;5111481;28;1963;-46
2023/03/29 01:51:47;;;;;;;;;;;;;;;;;;5111530;28;2048;-42
2023/03/29 01:54:21;;;;;;;;;;;;;;;;;;5111554;28;2041;-44
2023/03/29 01:56:49;;;;;;;;;;;;;;;;;;5103624;28;2061;-41
2023/03/29 01:59:19;;;;;;;;;;;;;;;;;;5129074;27;1934;-42
2023/03/29 02:01:48;;;;;;;;;;;;;;;;;;5132334;28;1994;-41
2023/03/29 02:04:19;;;;;;;;;;;;;;;;;;5113877;28;2150;-40
2023/03/29 02:06:49;;;;;;;;;;;;;;;;;;5113860;28;2031;-41
2023/03/29 02:09:16;;;;;;;;;;;;;;;;;;5132431;28;1937;-42
2023/03/29 02:11:44;;;;;;;;;;;;;;;;;;5113890;28;2054;-42
2023/03/29 02:14:12;;;;;;;;;;;;;;;;;;5131951;28;2019;-43
2023/03/29 02:16:39;;;;;;;;;;;;;;;;;;5132015;27;2013;-41
2023/03/29 02:19:08;;;;;;;;;;;;;;;;;;5131901;28;2082;-42
2023/03/29 02:21:50;;;;;;;;;;;;;;;;;;5131951;28;1925;-41
2023/03/29 02:24:19;;;;;;;;;;;;;;;;;;5131951;28;2101;-41
2023/03/29 02:26:47;;;;;;;;;;;;;;;;;;5113766;28;2271;-41
2023/03/29 02:29:15;;;;;;;;;;;;;;;;;;5131672;28;1948;-43
2023/03/29 02:31:50;;;;;;;;;;;;;;;;;;5113242;28;1941;-41
2023/03/29 02:34:21;;;;;;;;;;;;;;;;;;5113391;28;2133;-46
2023/03/29 02:36:55;;;;;;;;;;;;;;;;;;5133579;27;2013;-43
2023/03/29 02:39:24;;;;;;;;;;;;;;;;;;5117078;27;2010;-43
2023/03/29 02:41:52;;;;;;;;;;;;;;;;;;5117496;27;1940;-40
2023/03/29 02:44:21;;;;;;;;;;;;;;;;;;5117233;27;2007;-40
2023/03/29 02:46:50;;;;;;;;;;;;;;;;;;5117155;27;2010;-41
2023/03/29 02:49:17;;;;;;;;;;;;;;;;;;5135719;27;1758;-41
2023/03/29 02:51:46;;;;;;;;;;;;;;;;;;5117144;27;2002;-41
2023/03/29 02:54:18;;;;;;;;;;;;;;;;;;5135497;27;1951;-41
2023/03/29 02:56:48;;;;;;;;;;;;;;;;;;5113317;28;2273;-41
2023/03/29 02:59:18;;;;;;;;;;;;;;;;;;5114887;28;1910;-40
2023/03/29 03:01:45;;;;;;;;;;;;;;;;;;5117253;27;1468;-45
2023/03/29 03:04:13;;;;;;;;;;;;;;;;;;5096446;28;1940;-40
2023/03/29 03:06:40;;;;;;;;;;;;;;;;;;5114636;28;2494;-44
2023/03/29 03:09:09;;;;;;;;;;;;;;;;;;5096295;28;1903;-42
2023/03/29 03:11:39;;;;;;;;;;;;;;;;;;5096295;28;2106;-42
2023/03/29 03:14:07;;;;;;;;;;;;;;;;;;5096430;28;1938;-41
2023/03/29 03:16:35;;;;;;;;;;;;;;;;;;5095932;28;1950;-42
2023/03/29 03:19:05;;;;;;;;;;;;;;;;;;5114392;28;1860;-41
2023/03/29 03:21:32;;;;;;;;;;;;;;;;;;5114327;28;2162;-39
2023/03/29 03:24:00;;;;;;;;;;;;;;;;;;5114398;28;1947;-40
2023/03/29 03:26:28;;;;;;;;;;;;;;;;;;5103501;28;2031;-42
2023/03/29 03:28:56;;;;;;;;;;;;;;;;;;5114092;28;2042;-42
2023/03/29 03:31:55;;;;;;;;;;;;;;;;;;5068669;28;2263;-41
2023/03/29 03:34:55;;;;;;;;;;;;;;;;;;5093055;27;1905;-41
2023/03/29 03:37:24;;;;;;;;;;;;;;;;;;5116330;27;1925;-40
2023/03/29 03:39:52;;;;;;;;;;;;;;;;;;5116036;27;2094;-42
2023/03/29 03:42:21;;;;;;;;;;;;;;;;;;5116363;27;2024;-41
2023/03/29 03:44:48;;;;;;;;;;;;;;;;;;5116057;27;2110;-41
2023/03/29 03:47:49;;;;;;;;;;;;;;;;;;5111650;28;2054;-41
2023/03/29 03:50:32;;;;;;;;;;;;;;;;;;5095648;28;1920;-43
2023/03/29 03:53:00;;;;;;;;;;;;;;;;;;5095351;28;1921;-42
2023/03/29 03:55:46;;;;;;;;;;;;;;;;;;5096072;28;2039;-41
2023/03/29 03:58:18;;;;;;;;;;;;;;;;;;5095050;28;1841;-41
2023/03/29 04:00:49;;;;;;;;;;;;;;;;;;5113403;28;1994;-41
2023/03/29 04:03:30;;;;;;;;;;;;;;;;;;5095184;28;2031;-40
2023/03/29 04:06:02;;;;;;;;;;;;;;;;;;5097387;27;2135;-43
2023/03/29 04:08:46;;;;;;;;;;;;;;;;;;5135638;27;1985;-41
2023/03/29 04:11:26;;;;;;;;;;;;;;;;;;5135992;27;2218;-42
2023/03/29 04:13:53;;;;;;;;;;;;;;;;;;5154634;27;2228;-41
2023/03/29 04:16:27;;;;;;;;;;;;;;;;;;5136090;27;1905;-42
2023/03/29 04:19:01;;;;;;;;;;;;;;;;;;5135650;27;2017;-43
2023/03/29 04:21:29;;;;;;;;;;;;;;;;;;5135549;27;1973;-41
2023/03/29 04:23:56;;;;;;;;;;;;;;;;;;5135815;27;1978;-41
2023/03/29 04:26:24;;;;;;;;;;;;;;;;;;5135863;27;2086;-40
2023/03/29 04:29:16;;;;;;;;;;;;;;;;;;5153626;27;2002;-42
2023/03/29 04:31:48;;;;;;;;;;;;;;;;;;5135462;27;1887;-41
2023/03/29 04:34:34;;;;;;;;;;;;;;;;;;5154224;27;2024;-42
2023/03/29 04:37:09;;;;;;;;;;;;;;;;;;5135396;27;2164;-43
2023/03/29 04:39:37;;;;;;;;;;;;;;;;;;5135392;27;2044;-42
2023/03/29 04:42:06;;;;;;;;;;;;;;;;;;5135262;27;1922;-40
2023/03/29 04:44:33;;;;;;;;;;;;;;;;;;5131613;27;4514;-43
2023/03/29 04:47:05;;;;;;;;;;;;;;;;;;5135165;27;1868;-41
2023/03/29 04:49:55;;;;;;;;;;;;;;;;;;5148547;27;10220;-43
2023/03/29 04:52:44;;;;;;;;;;;;;;;;;;5106755;27;11507;-41
2023/03/29 04:55:12;;;;;;;;;;;;;;;;;;5152829;27;2042;-42
2023/03/29 04:57:45;;;;;;;;;;;;;;;;;;5114093;27;1926;-41
2023/03/29 05:00:26;;;;;;;;;;;;;;;;;;5131901;27;2106;-41
2023/03/29 05:03:13;;;;;;;;;;;;;;;;;;5114063;27;1970;-42
2023/03/29 05:05:49;;;;;;;;;;;;;;;;;;5114310;27;2176;-42
2023/03/29 05:08:17;;;;;;;;;;;;;;;;;;5132826;27;2025;-44
2023/03/29 05:11:10;;;;;;;;;;;;;;;;;;5129391;27;1839;-41
2023/03/29 05:13:37;;;;;;;;;;;;;;;;;;5114171;27;1918;-41
2023/03/29 05:16:05;;;;;;;;;;;;;;;;;;5114114;27;1958;-41
2023/03/29 05:18:33;;;;;;;;;;;;;;;;;;5132534;27;2274;-42
2023/03/29 05:21:02;;;;;;;;;;;;;;;;;;5113884;27;1935;-41
2023/03/29 05:23:33;;;;;;;;;;;;;;;;;;5113966;27;2143;-43
2023/03/29 05:26:21;;;;;;;;;;;;;;;;;;5099980;27;1933;-42
2023/03/29 05:28:51;;;;;;;;;;;;;;;;;;5113925;27;1903;-43
2023/03/29 05:31:19;;;;;;;;;;;;;;;;;;5114007;27;1898;-44
2023/03/29 05:33:51;;;;;;;;;;;;;;;;;;5113958;27;2037;-44
2023/03/29 05:36:19;;;;;;;;;;;;;;;;;;5113850;27;1895;-42
2023/03/29 05:38:50;;;;;;;;;;;;;;;;;;5113734;27;2067;-40
2023/03/29 05:41:24;;;;;;;;;;;;;;;;;;5113647;27;2126;-41
2023/03/29 05:44:00;;;;;;;;;;;;;;;;;;5132269;27;2082;-44
2023/03/29 05:46:29;;;;;;;;;;;;;;;;;;5113046;27;1336;-42
2023/03/29 05:49:00;;;;;;;;;;;;;;;;;;5111088;27;1738;-44
2023/03/29 05:51:51;;;;;;;;;;;;;;;;;;5128178;27;1935;-42
2023/03/29 05:54:18;;;;;;;;;;;;;;;;;;5111481;27;1886;-41
2023/03/29 05:56:45;;;;;;;;;;;;;;;;;;5121445;27;1886;-42
2023/03/29 05:59:16;;;;;;;;;;;;;;;;;;5110583;28;1964;-42
2023/03/29 06:01:46;;;;;;;;;;;;;;;;;;5111641;28;1727;-41
2023/03/29 06:04:17;;;;;;;;;;;;;;;;;;5112852;28;2084;-42
2023/03/29 06:07:05;;;;;;;;;;;;;;;;;;5116146;28;1980;-41
2023/03/29 06:09:34;;;;;;;;;;;;;;;;;;5111402;28;1945;-42
2023/03/29 06:12:04;;;;;;;;;;;;;;;;;;5115629;27;1964;-42
2023/03/29 06:14:51;;;;;;;;;;;;;;;;;;5132896;27;1912;-42
2023/03/29 06:17:26;;;;;;;;;;;;;;;;;;5115496;27;1936;-42
2023/03/29 06:19:54;;;;;;;;;;;;;;;;;;5134002;27;1809;-43
2023/03/29 06:22:24;;;;;;;;;;;;;;;;;;5115964;27;1881;-43
2023/03/29 06:24:51;;;;;;;;;;;;;;;;;;5135987;27;1976;-42
2023/03/29 06:27:25;;;;;;;;;;;;;;;;;;5136120;27;2042;-42
2023/03/29 06:29:53;;;;;;;;;;;;;;;;;;5117541;27;1989;-42
2023/03/29 06:32:21;;;;;;;;;;;;;;;;;;5117213;27;1984;-41
2023/03/29 06:35:08;;;;;;;;;;;;;;;;;;5134952;27;1876;-47
2023/03/29 06:37:48;;;;;;;;;;;;;;;;;;5135546;27;1901;-42
2023/03/29 06:40:51;;;;;;;;;;;;;;;;;;5117120;27;1805;-42
2023/03/29 06:43:21;;;;;;;;;;;;;;;;;;5116800;27;1972;-49
2023/03/29 06:45:53;;;;;;;;;;;;;;;;;;5135464;27;2008;-45
2023/03/29 06:48:38;;;;;;;;;;;;;;;;;;5117010;27;2008;-42
2023/03/29 06:51:06;;;;;;;;;;;;;;;;;;5117234;27;2056;-41
2023/03/29 06:53:34;;;;;;;;;;;;;;;;;;5117204;27;1991;-42
2023/03/29 06:56:07;;;;;;;;;;;;;;;;;;5124141;27;1972;-41
2023/03/29 06:58:43;;;;;;;;;;;;;;;;;;5156071;27;2131;-42
2023/03/29 07:01:27;;;;;;;;;;;;;;;;;;5137330;27;1941;-42
2023/03/29 07:04:06;;;;;;;;;;;;;;;;;;5136899;27;2047;-42
2023/03/29 07:07:00;;;;;;;;;;;;;;;;;;5137385;27;1942;-43
2023/03/29 07:09:30;;;;;;;;;;;;;;;;;;5137293;27;1979;-42
2023/03/29 07:12:15;;;;;;;;;;;;;;;;;;5155780;27;1867;-45
2023/03/29 07:14:43;;;;;;;;;;;;;;;;;;5136920;27;2102;-42
2023/03/29 07:17:13;;;;;;;;;;;;;;;;;;5137097;27;2053;-42
2023/03/29 07:19:41;;;;;;;;;;;;;;;;;;5136924;27;2433;-42
2023/03/29 07:22:26;;;;;;;;;;;;;;;;;;5154573;27;2111;-45
2023/03/29 07:24:59;;;;;;;;;;;;;;;;;;5136592;27;2001;-42
2023/03/29 07:27:28;;;;;;;;;;;;;;;;;;5136988;27;1748;-41
2023/03/29 07:29:55;;;;;;;;;;;;;;;;;;5155470;27;1849;-43
2023/03/29 07:32:23;;;;;;;;;;;;;;;;;;5136793;27;1906;-46
2023/03/29 07:34:58;;;;;;;;;;;;;;;;;;5136546;27;2048;-42
2023/03/29 07:37:34;;;;;;;;;;;;;;;;;;5136587;27;1840;-41
2023/03/29 07:40:03;;;;;;;;;;;;;;;;;;5136625;27;2167;-42
2023/03/29 07:42:52;;;;;;;;;;;;;;;;;;5136609;27;1967;-42
2023/03/29 07:45:22;;;;;;;;;;;;;;;;;;5136263;27;2046;-42
2023/03/29 07:48:03;;;;;;;;;;;;;;;;;;5136496;27;1969;-49
2023/03/29 07:50:45;;;;;;;;;;;;;;;;;;5136360;27;2027;-46
2023/03/29 07:53:13;;;;;;;;;;;;;;;;;;5136393;27;2142;-42
2023/03/29 07:55:45;;;;;;;;;;;;;;;;;;5133128;27;2232;-42
2023/03/29 07:58:39;;;;;;;;;;;;;;;;;;5129251;27;2004;-41
2023/03/29 08:01:07;;;;;;;;;;;;;;;;;;5115792;27;1922;-50
2023/03/29 08:03:52;;;;;;;;;;;;;;;;;;5134016;27;2046;-50
2023/03/29 08:06:27;;;;;;;;;;;;;;;;;;5115202;27;1805;-45
2023/03/29 08:08:54;;;;;;;;;;;;;;;;;;5115490;27;1946;-46
2023/03/29 08:11:23;;;;;;;;;;;;;;;;;;5115318;27;2041;-41
2023/03/29 08:14:02;;;;;;;;;;;;;;;;;;5115373;27;1979;-41
2023/03/29 08:16:48;;;;;;;;;;;;;;;;;;5133802;27;1978;-41
2023/03/29 08:19:16;;;;;;;;;;;;;;;;;;5115155;27;2518;-45
2023/03/29 08:22:04;;;;;;;;;;;;;;;;;;5115086;27;2085;-42
2023/03/29 08:25:04;;;;;;;;;;;;;;;;;;5133284;27;2027;-42
2023/03/29 08:27:36;;;;;;;;;;;;;;;;;;5114730;27;2051;-42
2023/03/29 08:30:06;;;;;;;;;;;;;;;;;;5115037;27;1791;-41
2023/03/29 08:32:39;;;;;;;;;;;;;;;;;;5115046;27;1782;-42
2023/03/29 08:35:08;;;;;;;;;;;;;;;;;;5114759;27;2086;-42
2023/03/29 08:37:57;;;;;;;;;;;;;;;;;;5114772;27;2186;-42
2023/03/29 08:40:26;;;;;;;;;;;;;;;;;;5114805;27;1955;-42
2023/03/29 08:43:16;;;;;;;;;;;;;;;;;;5114613;27;1953;-40
2023/03/29 08:46:16;;;;;;;;;;;;;;;;;;5117261;27;1960;-42
2023/03/29 08:48:46;;;;;;;;;;;;;;;;;;5114955;27;1996;-44
2023/03/29 08:51:20;;;;;;;;;;;;;;;;;;5114470;27;2104;-43
2023/03/29 08:53:51;;;;;;;;;;;;;;;;;;5114570;27;2075;-41
2023/03/29 08:56:32;;;;;;;;;;;;;;;;;;5122076;27;2172;-42
2023/03/29 08:59:25;;;;;;;;;;;;;;;;;;5114186;27;2045;-43
2023/03/29 09:01:55;;;;;;;;;;;;;;;;;;5114368;27;1895;-41
2023/03/29 09:04:25;;;;;;;;;;;;;;;;;;5114113;27;1910;-43
2023/03/29 09:07:12;;;;;;;;;;;;;;;;;;5132785;27;1929;-42
2023/03/29 09:09:45;;;;;;;;;;;;;;;;;;5132928;27;2024;-42
2023/03/29 09:12:29;;;;;;;;;;;;;;;;;;5114438;27;2039;-43
2023/03/29 09:15:10;;;;;;;;;;;;;;;;;;5113995;27;2254;-44
2023/03/29 09:17:51;;;;;;;;;;;;;;;;;;5131182;27;1984;-42
2023/03/29 09:20:53;;;;;;;;;;;;;;;;;;5114154;27;2015;-43
2023/03/29 09:23:43;;;;;;;;;;;;;;;;;;5081215;27;1916;-51
2023/03/29 09:26:54;;;;;;;;;;;;;;;;;;5131775;27;1904;-42
2023/03/29 09:29:30;;;;;;;;;;;;;;;;;;5132483;27;1791;-57
2023/03/29 09:32:01;;;;;;;;;;;;;;;;;;5113313;27;2046;-42
2023/03/29 09:34:30;;;;;;;;;;;;;;;;;;5113650;27;2026;-42
2023/03/29 09:37:07;;;;;;;;;;;;;;;;;;5132179;27;2188;-42
2023/03/29 09:39:38;;;;;;;;;;;;;;;;;;5113801;27;2042;-44
2023/03/29 09:42:11;;;;;;;;;;;;;;;;;;5130776;27;2059;-42
2023/03/29 09:44:39;;;;;;;;;;;;;;;;;;5113151;27;1973;-42
2023/03/29 09:47:12;;;;;;;;;;;;;;;;;;5113409;27;1994;-42
2023/03/29 09:49:42;;;;;;;;;;;;;;;;;;5113698;27;2202;-40
2023/03/29 09:52:11;;;;;;;;;;;;;;;;;;5113334;28;2206;-42
2023/03/29 09:54:42;;;;;;;;;;;;;;;;;;5113332;28;1931;-40
2023/03/29 09:57:28;;;;;;;;;;;;;;;;;;5131917;27;1880;-41
2023/03/29 09:59:57;;;;;;;;;;;;;;;;;;5113381;28;2065;-41
2023/03/29 10:02:29;;;;;;;;;;;;;;;;;;5131939;28;1967;-42
2023/03/29 10:04:59;;;;;;;;;;;;;;;;;;5113301;28;1916;-41
2023/03/29 10:07:34;;;;;;;;;;;;;;;;;;5113218;28;1931;-49
2023/03/29 10:10:01;;;;;;;;;;;;;;;;;;5113212;28;1830;-49
2023/03/29 10:12:31;;;;;;;;;;;;;;;;;;5131855;28;1952;-42
2023/03/29 10:14:59;;;;;;;;;;;;;;;;;;5131705;28;2040;-42
2023/03/29 10:17:28;;;;;;;;;;;;;;;;;;5131710;28;2020;-41
2023/03/29 10:19:57;;;;;;;;;;;;;;;;;;5131695;28;1822;-41
2023/03/29 10:22:47;;;;;;;;;;;;;;;;;;5131688;28;2048;-41
2023/03/29 10:25:16;;;;;;;;;;;;;;;;;;5131686;28;2138;-40
2023/03/29 10:27:45;;;;;;;;;;;;;;;;;;5131778;28;2006;-43
2023/03/29 10:30:21;;;;;;;;;;;;;;;;;;5131527;28;1886;-42
2023/03/29 10:32:56;;;;;;;;;;;;;;;;;;5131816;28;1943;-47
2023/03/29 10:35:32;;;;;;;;;;;;;;;;;;5131697;28;1820;-41
2023/03/29 10:38:03;;;;;;;;;;;;;;;;;;5113310;28;2231;-41
2023/03/29 10:40:32;;;;;;;;;;;;;;;;;;5132073;28;1816;-42
2023/03/29 10:43:00;;;;;;;;;;;;;;;;;;5131100;28;2019;-42
2023/03/29 10:45:30;;;;;;;;;;;;;;;;;;5131085;28;2018;-42
2023/03/29 10:47:57;;;;;;;;;;;;;;;;;;5131731;28;2151;-44
2023/03/29 10:50:31;;;;;;;;;;;;;;;;;;5113127;28;1946;-41
2023/03/29 10:52:58;;;;;;;;;;;;;;;;;;5131344;28;2052;-41
2023/03/29 10:55:31;;;;;;;;;;;;;;;;;;5131045;28;1896;-41
2023/03/29 10:58:16;;;;;;;;;;;;;;;;;;5133021;27;2042;-42
2023/03/29 11:00:46;;;;;;;;;;;;;;;;;;5135053;27;2109;-40
2023/03/29 11:03:13;;;;;;;;;;;;;;;;;;5135232;27;2044;-41
2023/03/29 11:06:01;;;;;;;;;;;;;;;;;;5134861;27;2065;-42
2023/03/29 11:08:35;;;;;;;;;;;;;;;;;;5135026;27;1960;-41
2023/03/29 11:11:19;;;;;;;;;;;;;;;;;;5135077;27;2033;-40
2023/03/29 11:13:46;;;;;;;;;;;;;;;;;;5134810;27;1936;-41
2023/03/29 11:16:13;;;;;;;;;;;;;;;;;;5134823;27;1835;-41
2023/03/29 11:18:51;;;;;;;;;;;;;;;;;;5134520;27;1887;-40
2023/03/29 11:21:20;;;;;;;;;;;;;;;;;;5134585;27;1898;-41
2023/03/29 11:24:10;;;;;;;;;;;;;;;;;;5134755;27;1936;-40
2023/03/29 11:26:58;;;;;;;;;;;;;;;;;;5134377;27;1911;-41
2023/03/29 11:29:26;;;;;;;;;;;;;;;;;;5134733;27;1844;-40
2023/03/29 11:31:56;;;;;;;;;;;;;;;;;;5134634;27;1963;-40
2023/03/29 11:34:46;;;;;;;;;;;;;;;;;;5134653;27;1875;-41
2023/03/29 11:37:33;;;;;;;;;;;;;;;;;;5134587;27;2089;-40
2023/03/29 11:40:06;;;;;;;;;;;;;;;;;;5134541;27;1871;-40
2023/03/29 11:42:36;;;;;;;;;;;;;;;;;;5134314;27;2007;-40
2023/03/29 11:45:03;;;;;;;;;;;;;;;;;;5134233;27;2258;-40
2023/03/29 11:47:32;;;;;;;;;;;;;;;;;;5134053;27;2019;-41
2023/03/29 11:50:06;;;;;;;;;;;;;;;;;;5134293;27;1821;-42
2023/03/29 11:52:39;;;;;;;;;;;;;;;;;;5134148;27;1992;-40
2023/03/29 11:55:17;;;;;;;;;;;;;;;;;;5115625;27;1867;-42
2023/03/29 11:57:56;;;;;;;;;;;;;;;;;;5134061;27;1913;-48
2023/03/29 12:00:28;;;;;;;;;;;;;;;;;;5134095;27;2112;-55
2023/03/29 12:02:58;;;;;;;;;;;;;;;;;;5134053;27;1876;-49
2023/03/29 12:05:47;;;;;;;;;;;;;;;;;;5134121;27;2127;-41
2023/03/29 12:08:21;;;;;;;;;;;;;;;;;;5133195;27;2031;-51
2023/03/29 12:11:07;;;;;;;;;;;;;;;;;;5133790;27;1984;-40
2023/03/29 12:14:01;;;;;;;;;;;;;;;;;;5133682;27;2036;-40
2023/03/29 12:16:38;;;;;;;;;;;;;;;;;;5127069;27;1953;-40
2023/03/29 12:19:27;;;;;;;;;;;;;;;;;;5133575;27;1908;-41
2023/03/29 12:21:56;;;;;;;;;;;;;;;;;;5133404;27;2000;-41
2023/03/29 12:24:25;;;;;;;;;;;;;;;;;;5115075;27;1907;-42
2023/03/29 12:27:02;;;;;;;;;;;;;;;;;;5144805;27;1963;-40
2023/03/29 12:29:35;;;;;;;;;;;;;;;;;;5153648;27;1895;-40
2023/03/29 12:32:21;;;;;;;;;;;;;;;;;;5154081;27;1908;-40
2023/03/29 12:35:00;;;;;;;;;;;;;;;;;;5135528;27;2007;-42
2023/03/29 12:38:00;;;;;;;;;;;;;;;;;;5118791;27;2179;-46
2023/03/29 12:40:47;;;;;;;;;;;;;;;;;;5154134;27;2012;-40
2023/03/29 12:43:47;;;;;;;;;;;;;;;;;;5129824;27;1436;-40
2023/03/29 12:46:19;;;;;;;;;;;;;;;;;;5153756;27;2033;-40
2023/03/29 12:48:48;;;;;;;;;;;;;;;;;;5153595;27;1935;-49
2023/03/29 12:51:20;;;;;;;;;;;;;;;;;;5153671;27;1784;-44
2023/03/29 12:53:47;;;;;;;;;;;;;;;;;;5153146;27;2042;-41
2023/03/29 12:56:22;;;;;;;;;;;;;;;;;;5144378;27;1957;-40
2023/03/29 12:58:54;;;;;;;;;;;;;;;;;;5132804;27;1948;-40
2023/03/29 13:01:29;;;;;;;;;;;;;;;;;;5132625;27;1421;-39
2023/03/29 13:04:00;;;;;;;;;;;;;;;;;;5133089;27;2035;-44
2023/03/29 13:06:31;;;;;;;;;;;;;;;;;;5132855;27;1909;-39
2023/03/29 13:09:00;;;;;;;;;;;;;;;;;;5132631;27;2017;-40
2023/03/29 13:11:36;;;;;;;;;;;;;;;;;;5132327;27;2046;-40
2023/03/29 13:14:13;;;;;;;;;;;;;;;;;;5149981;27;1920;-40
2023/03/29 13:16:42;;;;;;;;;;;;;;;;;;5152314;27;2043;-41
2023/03/29 13:19:28;;;;;;;;;;;;;;;;;;5152696;27;1949;-40
2023/03/29 13:22:16;;;;;;;;;;;;;;;;;;5152778;27;1931;-40
2023/03/29 13:24:54;;;;;;;;;;;;;;;;;;5131162;27;1979;-41
2023/03/29 13:27:49;;;;;;;;;;;;;;;;;;5153085;27;2037;-40
2023/03/29 13:30:31;;;;;;;;;;;;;;;;;;5151068;27;1799;-41
2023/03/29 13:33:12;;;;;;;;;;;;;;;;;;5152999;27;1956;-40
2023/03/29 13:35:46;;;;;;;;;;;;;;;;;;5152745;27;1927;-41
2023/03/29 13:38:19;;;;;;;;;;;;;;;;;;5152860;27;2071;-40
2023/03/29 13:40:52;;;;;;;;;;;;;;;;;;5152392;27;2027;-41
2023/03/29 13:43:32;;;;;;;;;;;;;;;;;;5152489;27;1914;-40
2023/03/29 13:46:02;;;;;;;;;;;;;;;;;;5152545;27;2063;-41
2023/03/29 13:48:37;;;;;;;;;;;;;;;;;;5152343;27;1756;-41
2023/03/29 13:51:12;;;;;;;;;;;;;;;;;;5152414;27;1970;-40
2023/03/29 13:53:52;;;;;;;;;;;;;;;;;;5131913;27;2103;-40
2023/03/29 13:56:25;;;;;;;;;;;;;;;;;;5141955;27;2036;-40
2023/03/29 13:59:10;;;;;;;;;;;;;;;;;;5152118;27;1877;-41
2023/03/29 14:01:53;;;;;;;;;;;;;;;;;;5133812;27;1823;-39
2023/03/29 14:04:30;;;;;;;;;;;;;;;;;;5152456;27;1917;-40
2023/03/29 14:06:58;;;;;;;;;;;;;;;;;;5151358;27;1943;-41
2023/03/29 14:09:28;;;;;;;;;;;;;;;;;;5131602;28;2117;-41
2023/03/29 14:11:58;;;;;;;;;;;;;;;;;;5132636;27;1960;-42
2023/03/29 14:14:26;;;;;;;;;;;;;;;;;;5152256;27;1955;-40
2023/03/29 14:16:54;;;;;;;;;;;;;;;;;;5152199;27;2088;-41
2023/03/29 14:19:28;;;;;;;;;;;;;;;;;;5152305;27;1865;-41
2023/03/29 14:21:56;;;;;;;;;;;;;;;;;;5152166;27;1927;-41
2023/03/29 14:24:33;;;;;;;;;;;;;;;;;;5133669;27;1956;-41
2023/03/29 14:27:01;;;;;;;;;;;;;;;;;;5152342;27;2169;-40
2023/03/29 14:29:29;;;;;;;;;;;;;;;;;;5152250;27;2122;-41
2023/03/29 14:32:07;;;;;;;;;;;;;;;;;;5153812;27;1991;-40
2023/03/29 14:34:35;;;;;;;;;;;;;;;;;;5156136;27;1935;-41
2023/03/29 14:37:03;;;;;;;;;;;;;;;;;;5156402;27;1791;-41
2023/03/29 14:39:33;;;;;;;;;;;;;;;;;;5156339;27;1966;-41
2023/03/29 14:42:01;;;;;;;;;;;;;;;;;;5156344;27;2027;-41
2023/03/29 14:44:33;;;;;;;;;;;;;;;;;;5155830;27;2047;-41
2023/03/29 14:47:01;;;;;;;;;;;;;;;;;;5155838;27;1922;-42
2023/03/29 14:49:29;;;;;;;;;;;;;;;;;;5155953;27;2119;-40
2023/03/29 14:51:56;;;;;;;;;;;;;;;;;;5137296;27;2351;-43
2023/03/29 14:54:28;;;;;;;;;;;;;;;;;;5156081;27;1986;-41
2023/03/29 14:56:55;;;;;;;;;;;;;;;;;;5140706;27;2135;-41
2023/03/29 14:59:35;;;;;;;;;;;;;;;;;;5135038;27;1855;-41
2023/03/29 15:02:02;;;;;;;;;;;;;;;;;;5134805;27;2019;-41
2023/03/29 15:04:33;;;;;;;;;;;;;;;;;;5134929;27;2233;-41
2023/03/29 15:07:03;;;;;;;;;;;;;;;;;;5134528;27;2062;-42
2023/03/29 15:09:32;;;;;;;;;;;;;;;;;;5134689;27;2124;-41
2023/03/29 15:12:01;;;;;;;;;;;;;;;;;;5134665;27;1917;-40
2023/03/29 15:14:32;;;;;;;;;;;;;;;;;;5134391;27;2107;-41
2023/03/29 15:17:22;;;;;;;;;;;;;;;;;;5134355;27;1846;-41
2023/03/29 15:19:51;;;;;;;;;;;;;;;;;;5144824;27;1636;-38
2023/03/29 15:22:18;;;;;;;;;;;;;;;;;;5137585;27;2038;-40
2023/03/29 15:24:47;;;;;;;;;;;;;;;;;;5133917;27;1816;-42
2023/03/29 15:27:16;;;;;;;;;;;;;;;;;;5133879;27;2185;-43
2023/03/29 15:29:45;;;;;;;;;;;;;;;;;;5140898;27;2143;-42
2023/03/29 15:32:23;;;;;;;;;;;;;;;;;;5137431;27;1888;-42
2023/03/29 15:34:57;;;;;;;;;;;;;;;;;;5133802;27;2021;-41
2023/03/29 15:37:25;;;;;;;;;;;;;;;;;;5134627;27;1816;-42
2023/03/29 15:39:52;;;;;;;;;;;;;;;;;;5134583;27;1931;-41
2023/03/29 15:42:19;;;;;;;;;;;;;;;;;;5134290;27;1928;-42
2023/03/29 15:44:47;;;;;;;;;;;;;;;;;;5136735;27;2085;-41
2023/03/29 15:47:15;;;;;;;;;;;;;;;;;;5154517;27;2055;-41
2023/03/29 15:49:45;;;;;;;;;;;;;;;;;;5154898;27;2066;-41
2023/03/29 15:52:13;;;;;;;;;;;;;;;;;;5154705;27;1871;-41
2023/03/29 15:54:41;;;;;;;;;;;;;;;;;;5141405;27;2058;-41
2023/03/29 15:57:12;;;;;;;;;;;;;;;;;;5133361;27;1889;-39
2023/03/29 15:59:40;;;;;;;;;;;;;;;;;;5133261;27;1955;-39
2023/03/29 16:02:11;;;;;;;;;;;;;;;;;;5134174;27;1977;-41
2023/03/29 16:04:38;;;;;;;;;;;;;;;;;;5133961;27;1991;-42
2023/03/29 16:07:09;;;;;;;;;;;;;;;;;;5133409;27;1911;-41
2023/03/29 16:09:38;;;;;;;;;;;;;;;;;;5154287;27;2111;-39
2023/03/29 16:12:05;;;;;;;;;;;;;;;;;;5136208;27;1985;-41
2023/03/29 16:14:33;;;;;;;;;;;;;;;;;;5147067;27;2017;-41
2023/03/29 16:17:01;;;;;;;;;;;;;;;;;;5154257;27;1990;-43
2023/03/29 16:19:29;;;;;;;;;;;;;;;;;;5154375;27;1810;-42
2023/03/29 16:21:57;;;;;;;;;;;;;;;;;;5154302;27;2350;-41
2023/03/29 16:24:26;;;;;;;;;;;;;;;;;;5154101;27;1885;-39
2023/03/29 16:26:54;;;;;;;;;;;;;;;;;;5154270;27;2009;-42
2023/03/29 16:29:22;;;;;;;;;;;;;;;;;;5154299;27;1906;-44
2023/03/29 16:31:51;;;;;;;;;;;;;;;;;;5154143;27;1936;-41
2023/03/29 16:34:19;;;;;;;;;;;;;;;;;;5153929;27;2404;-43
2023/03/29 16:36:46;;;;;;;;;;;;;;;;;;5151767;27;1985;-42
2023/03/29 16:39:16;;;;;;;;;;;;;;;;;;5132496;27;1837;-42
2023/03/29 16:41:45;;;;;;;;;;;;;;;;;;5131166;27;1987;-41
2023/03/29 16:44:16;;;;;;;;;;;;;;;;;;5132611;27;1992;-41
2023/03/29 16:46:44;;;;;;;;;;;;;;;;;;5132808;27;2108;-41
2023/03/29 16:49:16;;;;;;;;;;;;;;;;;;5114886;27;2054;-42
2023/03/29 16:51:47;;;;;;;;;;;;;;;;;;5131473;27;1888;-41
2023/03/29 16:54:15;;;;;;;;;;;;;;;;;;5132658;27;1981;-42
2023/03/29 16:56:43;;;;;;;;;;;;;;;;;;5132961;27;1860;-42
2023/03/29 16:59:10;;;;;;;;;;;;;;;;;;5132827;27;1981;-51
2023/03/29 17:01:39;;;;;;;;;;;;;;;;;;5133148;27;1892;-43
2023/03/29 17:04:06;;;;;;;;;;;;;;;;;;5132495;27;2017;-41
2023/03/29 17:06:34;;;;;;;;;;;;;;;;;;5131549;27;2241;-42
2023/03/29 17:09:03;;;;;;;;;;;;;;;;;;5132237;27;1999;-42
2023/03/29 17:11:31;;;;;;;;;;;;;;;;;;5132684;27;2096;-42
2023/03/29 17:13:58;;;;;;;;;;;;;;;;;;5132169;27;2089;-42
2023/03/29 17:16:27;;;;;;;;;;;;;;;;;;5132276;27;1948;-42
2023/03/29 17:18:58;;;;;;;;;;;;;;;;;;5132280;27;2072;-41
2023/03/29 17:21:27;;;;;;;;;;;;;;;;;;5132070;27;1775;-42
2023/03/29 17:23:54;;;;;;;;;;;;;;;;;;5132330;27;1923;-41
2023/03/29 17:26:22;;;;;;;;;;;;;;;;;;5132278;27;2063;-42
2023/03/29 17:28:49;;;;;;;;;;;;;;;;;;5132233;27;2148;-41
2023/03/29 17:31:18;;;;;;;;;;;;;;;;;;5131835;27;2107;-41
2023/03/29 17:33:46;;;;;;;;;;;;;;;;;;5142577;27;1455;-41
2023/03/29 17:36:13;;;;;;;;;;;;;;;;;;5151957;27;2184;-42
2023/03/29 17:38:41;;;;;;;;;;;;;;;;;;5153093;27;2094;-41
2023/03/29 17:41:09;;;;;;;;;;;;;;;;;;5152843;27;1813;-40
2023/03/29 17:43:37;;;;;;;;;;;;;;;;;;5134183;27;1980;-42
2023/03/29 17:46:06;;;;;;;;;;;;;;;;;;5131844;27;1987;-41
2023/03/29 17:48:33;;;;;;;;;;;;;;;;;;5132013;27;2131;-42